createdAt,value
2022-09-16T00:01:28.896Z,76.30
2022-09-16T00:04:34.512Z,76.40
2022-09-16T00:07:39.371Z,76.73
2022-09-16T00:10:45.847Z,76.80
2022-09-16T00:13:51.209Z,76.62
2022-09-16T00:16:56.377Z,76.94
2022-09-16T00:20:03.439Z,76.90
2022-09-16T00:23:08.336Z,77.37
2022-09-16T00:26:14.247Z,77.37
2022-09-16T00:29:20.354Z,77.81
2022-09-16T00:32:25.988Z,77.94
2022-09-16T00:35:31.109Z,78.32
2022-09-16T00:38:36.906Z,78.45
2022-09-16T00:41:45.874Z,77.86
2022-09-16T00:45:22.957Z,77.53
2022-09-16T00:48:32.507Z,78.24
2022-09-16T00:51:39.127Z,77.67
2022-09-16T00:54:39.085Z,77.90
2022-09-16T00:57:32.984Z,77.69
2022-09-16T01:00:38.764Z,77.63
2022-09-16T01:03:44.818Z,77.70
2022-09-16T01:06:52.339Z,78.12
2022-09-16T01:09:58.128Z,78.11
2022-09-16T01:13:08.535Z,78.78
2022-09-16T01:16:40.551Z,78.80
2022-09-16T01:20:15.489Z,78.88
2022-09-16T01:23:48.775Z,78.60
2022-09-16T01:26:56.699Z,79.03
2022-09-16T01:30:08.168Z,78.71
2022-09-16T01:33:20.339Z,78.54
2022-09-16T01:36:42.590Z,78.65
2022-09-16T01:40:16.262Z,78.46
2022-09-16T01:43:35.640Z,78.78
2022-09-16T01:46:52.744Z,78.63
2022-09-16T01:50:21.802Z,78.07
2022-09-16T01:53:49.263Z,78.16
2022-09-16T01:57:25.349Z,78.06
2022-09-16T02:00:31.358Z,77.88
2022-09-16T02:03:48.377Z,77.49
2022-09-16T02:06:54.587Z,77.81
2022-09-16T02:10:10.348Z,78.27
2022-09-16T02:13:20.914Z,78.87
2022-09-16T02:16:30.478Z,78.16
2022-09-16T02:19:34.591Z,78.62
2022-09-16T02:22:32.027Z,79.33
2022-09-16T02:25:36.827Z,81.49
2022-09-16T02:28:45.243Z,82.24
2022-09-16T02:31:55.478Z,82.28
2022-09-16T02:35:02.631Z,82.09
2022-09-16T02:38:21.585Z,82.59
2022-09-16T02:41:27.554Z,82.25
2022-09-16T02:44:32.826Z,81.87
2022-09-16T02:47:51.359Z,81.05
2022-09-16T02:51:01.765Z,80.93
2022-09-16T02:54:12.172Z,79.97
2022-09-16T02:57:18.562Z,80.30
2022-09-16T03:00:24.492Z,79.93
2022-09-16T03:03:31.125Z,80.55
2022-09-16T03:06:43.159Z,79.84
2022-09-16T03:09:51.181Z,78.86
2022-09-16T03:13:27.387Z,77.93
2022-09-16T03:16:47.697Z,77.49
2022-09-16T03:20:23.991Z,77.44
2022-09-16T03:23:46.262Z,78.18
2022-09-16T03:27:17.951Z,77.47
2022-09-16T03:30:25.153Z,78.41
2022-09-16T03:33:41.386Z,78.71
2022-09-16T03:36:49.853Z,79.12
2022-09-16T03:39:56.087Z,78.35
2022-09-16T03:43:04.608Z,79.12
2022-09-16T03:46:11.557Z,79.35
2022-09-16T03:49:18.092Z,77.80
2022-09-16T03:52:25.261Z,76.89
2022-09-16T03:55:30.979Z,76.94
2022-09-16T03:58:37.090Z,76.54
2022-09-16T04:01:42.699Z,76.29
2022-09-16T04:04:48.557Z,77.05
2022-09-16T04:07:55.121Z,76.84
2022-09-16T04:11:15.549Z,77.93
2022-09-16T04:14:15.053Z,77.48
2022-09-16T04:17:14.232Z,76.85
2022-09-16T04:20:20.311Z,76.89
2022-09-16T04:23:25.991Z,77.02
2022-09-16T04:26:32.054Z,77.60
2022-09-16T04:29:39.269Z,77.53
2022-09-16T04:32:46.486Z,77.32
2022-09-16T04:35:53.110Z,77.82
2022-09-16T04:39:01.890Z,78.29
2022-09-16T04:42:07.574Z,77.87
2022-09-16T04:45:13.053Z,78.77
2022-09-16T04:48:20.438Z,78.76
2022-09-16T04:51:27.613Z,78.43
2022-09-16T04:54:32.700Z,78.15
2022-09-16T04:57:39.724Z,78.23
2022-09-16T05:00:45.473Z,77.60
2022-09-16T05:03:51.804Z,77.03
2022-09-16T05:07:02.333Z,77.12
2022-09-16T05:10:07.537Z,76.60
2022-09-16T05:13:14.001Z,76.75
2022-09-16T05:16:24.552Z,76.93
2022-09-16T05:19:30.316Z,77.37
2022-09-16T05:22:38.585Z,77.29
2022-09-16T05:25:44.129Z,77.40
2022-09-16T05:28:50.124Z,76.71
2022-09-16T05:31:56.583Z,75.96
2022-09-16T05:35:02.312Z,76.41
2022-09-16T05:38:07.836Z,75.47
2022-09-16T05:41:19.257Z,75.19
2022-09-16T05:44:25.321Z,74.97
2022-09-16T05:47:30.709Z,74.71
2022-09-16T05:50:36.945Z,74.86
2022-09-16T05:53:43.395Z,74.14
2022-09-16T05:56:52.970Z,74.32
2022-09-16T06:00:04.451Z,74.54
2022-09-16T06:03:11.272Z,74.26
2022-09-16T06:06:46.584Z,75.04
2022-09-16T06:09:52.373Z,75.44
2022-09-16T06:12:57.821Z,75.71
2022-09-16T06:16:04.900Z,75.29
2022-09-16T06:19:10.303Z,74.93
2022-09-16T06:22:32.085Z,74.34
2022-09-16T06:25:38.798Z,72.99
2022-09-16T06:28:44.844Z,71.55
2022-09-16T06:31:50.848Z,71.35
2022-09-16T06:34:57.381Z,69.24
2022-09-16T06:38:03.260Z,67.37
2022-09-16T06:41:08.650Z,68.35
2022-09-16T06:44:14.180Z,67.00
2022-09-16T06:47:21.448Z,66.56
2022-09-16T06:50:27.280Z,66.13
2022-09-16T06:53:33.949Z,65.80
2022-09-16T06:56:34.744Z,65.45
2022-09-16T06:59:42.567Z,64.93
2022-09-16T07:02:48.830Z,64.91
2022-09-16T07:05:54.670Z,64.20
2022-09-16T07:09:00.109Z,63.44
2022-09-16T07:12:09.500Z,63.21
2022-09-16T07:15:14.868Z,62.37
2022-09-16T07:18:20.100Z,62.19
2022-09-16T07:21:29.031Z,60.63
2022-09-16T07:24:35.076Z,59.42
2022-09-16T07:27:40.500Z,58.23
2022-09-16T07:30:46.203Z,58.07
2022-09-16T07:33:56.617Z,57.48
2022-09-16T07:37:03.566Z,57.50
2022-09-16T07:40:10.072Z,56.74
2022-09-16T07:43:16.495Z,55.84
2022-09-16T07:46:23.870Z,55.61
2022-09-16T07:49:29.338Z,53.75
2022-09-16T07:52:36.802Z,52.78
2022-09-16T07:55:41.981Z,52.70
2022-09-16T07:58:48.930Z,51.77
2022-09-16T08:01:55.799Z,52.06
2022-09-16T08:05:02.174Z,51.58
2022-09-16T08:08:08.385Z,51.69
2022-09-16T08:11:13.335Z,52.28
2022-09-16T08:14:18.844Z,52.90
2022-09-16T08:17:23.938Z,52.57
2022-09-16T08:20:32.326Z,52.55
2022-09-16T08:23:38.227Z,53.15
2022-09-16T08:26:43.804Z,52.74
2022-09-16T08:29:49.362Z,52.03
2022-09-16T08:32:55.840Z,51.37
2022-09-16T08:36:24.701Z,51.49
2022-09-16T08:39:31.457Z,51.92
2022-09-16T08:43:04.111Z,51.53
2022-09-16T08:46:20.304Z,51.25
2022-09-16T08:49:54.820Z,50.67
2022-09-16T08:53:02.096Z,50.30
2022-09-16T08:56:07.928Z,49.26
2022-09-16T08:59:16.750Z,49.70
2022-09-16T09:02:47.736Z,50.70
2022-09-16T09:06:12.398Z,50.21
2022-09-16T09:09:56.486Z,48.69
2022-09-16T09:13:17.685Z,48.08
2022-09-16T09:16:41.088Z,46.35
2022-09-16T09:20:03.871Z,45.26
2022-09-16T09:23:37.951Z,45.94
2022-09-16T09:27:08.434Z,46.24
2022-09-16T09:30:42.485Z,47.00
2022-09-16T09:33:58.267Z,46.60
2022-09-16T09:37:38.497Z,46.86
2022-09-16T09:40:58.147Z,47.14
2022-09-16T09:44:41.782Z,47.58
2022-09-16T09:47:58.350Z,47.72
2022-09-16T09:51:07.182Z,48.28
2022-09-16T09:54:16.380Z,48.49
2022-09-16T09:57:27.335Z,48.91
2022-09-16T10:00:34.008Z,49.05
2022-09-16T10:03:41.071Z,49.86
2022-09-16T10:06:48.698Z,49.84
2022-09-16T10:10:03.253Z,49.66
2022-09-16T10:13:07.698Z,49.67
2022-09-16T10:16:30.267Z,49.14
2022-09-16T10:19:39.692Z,47.84
2022-09-16T10:22:47.433Z,46.57
2022-09-16T10:25:52.406Z,45.99
2022-09-16T10:28:58.909Z,45.64
2022-09-16T10:32:06.190Z,45.37
2022-09-16T10:35:11.915Z,44.63
2022-09-16T10:38:30.803Z,44.83
2022-09-16T10:41:57.810Z,44.19
2022-09-16T10:45:03.476Z,44.56
2022-09-16T10:48:15.460Z,43.62
2022-09-16T10:51:21.913Z,44.09
2022-09-16T10:54:42.032Z,43.69
2022-09-16T10:57:49.806Z,43.35
2022-09-16T11:01:14.527Z,43.78
2022-09-16T11:04:39.938Z,44.62
2022-09-16T11:07:58.125Z,44.53
2022-09-16T11:11:20.933Z,45.23
2022-09-16T11:14:43.575Z,45.18
2022-09-16T11:18:29.626Z,45.90
2022-09-16T11:21:51.781Z,46.27
2022-09-16T11:25:15.290Z,46.75
2022-09-16T11:28:44.801Z,46.06
2022-09-16T11:32:25.763Z,46.22
2022-09-16T11:35:48.286Z,46.51
2022-09-16T11:39:28.051Z,46.33
2022-09-16T11:42:51.679Z,46.53
2022-09-16T11:46:17.435Z,46.90
2022-09-16T11:49:54.825Z,46.32
2022-09-16T11:53:34.434Z,46.19
2022-09-16T11:56:58.615Z,45.88
2022-09-16T12:00:12.486Z,44.74
2022-09-16T12:03:47.345Z,43.89
2022-09-16T12:07:13.093Z,43.66
2022-09-16T12:10:33.155Z,43.38
2022-09-16T12:14:20.975Z,43.92
2022-09-16T12:17:33.669Z,43.62
2022-09-16T12:20:52.489Z,43.62
2022-09-16T12:24:01.773Z,43.34
2022-09-16T12:27:35.427Z,43.44
2022-09-16T12:30:54.143Z,43.33
2022-09-16T12:34:13.262Z,43.75
2022-09-16T12:37:26.547Z,43.90
2022-09-16T12:40:40.011Z,43.99
2022-09-16T12:44:06.381Z,45.23
2022-09-16T12:47:28.507Z,45.99
2022-09-16T12:50:53.789Z,46.50
2022-09-16T12:55:04.143Z,47.33
2022-09-16T12:58:23.169Z,48.07
2022-09-16T13:01:41.977Z,47.05
2022-09-16T13:04:46.385Z,48.31
2022-09-16T13:07:49.966Z,49.32
2022-09-16T13:11:12.127Z,53.16
2022-09-16T13:14:06.520Z,54.52
2022-09-16T13:17:12.433Z,55.88
2022-09-16T13:20:39.803Z,58.06
2022-09-16T13:23:48.297Z,58.71
2022-09-16T13:26:58.518Z,59.80
2022-09-16T13:30:04.126Z,60.13
2022-09-16T13:33:14.155Z,61.78
2022-09-16T13:36:30.611Z,61.88
2022-09-16T13:39:50.290Z,62.96
2022-09-16T13:42:54.685Z,63.80
2022-09-16T13:46:00.604Z,63.61
2022-09-16T13:49:28.785Z,64.54
2022-09-16T13:52:50.099Z,64.76
2022-09-16T13:55:55.963Z,64.75
2022-09-16T13:59:28.642Z,64.67
2022-09-16T14:02:51.673Z,65.08
2022-09-16T14:06:17.042Z,66.10
2022-09-16T14:10:01.576Z,65.15
2022-09-16T14:13:32.423Z,64.22
2022-09-16T14:16:43.892Z,64.06
2022-09-16T14:19:53.686Z,64.10
2022-09-16T14:22:58.770Z,64.51
2022-09-16T14:26:04.444Z,64.04
2022-09-16T14:29:18.207Z,63.19
2022-09-16T14:32:25.855Z,63.55
2022-09-16T14:35:37.001Z,63.39
2022-09-16T14:38:53.663Z,63.54
2022-09-16T14:42:02.435Z,62.75
2022-09-16T14:45:08.603Z,62.84
2022-09-16T14:48:15.975Z,63.04
2022-09-16T14:51:29.010Z,63.63
2022-09-16T14:54:30.058Z,63.31
2022-09-16T14:57:36.651Z,63.44
2022-09-16T15:00:49.798Z,63.03
2022-09-16T15:04:11.300Z,63.15
2022-09-16T15:07:34.621Z,63.03
2022-09-16T15:10:56.724Z,62.83
2022-09-16T15:13:52.139Z,62.29
2022-09-16T15:17:04.486Z,63.37
2022-09-16T15:20:13.685Z,63.86
2022-09-16T15:23:19.876Z,64.16
2022-09-16T15:26:33.067Z,63.42
2022-09-16T15:29:45.651Z,63.43
2022-09-16T15:32:58.576Z,64.45
2022-09-16T15:36:05.063Z,64.48
2022-09-16T15:39:13.555Z,64.58
2022-09-16T15:42:33.368Z,64.62
2022-09-16T15:45:38.926Z,64.50
2022-09-16T15:48:53.429Z,65.21
2022-09-16T15:52:04.119Z,65.14
2022-09-16T15:55:14.931Z,65.10
2022-09-16T15:58:25.149Z,65.39
2022-09-16T16:01:54.961Z,65.94
2022-09-16T16:05:00.717Z,66.13
2022-09-16T16:08:10.042Z,66.70
2022-09-16T16:11:30.309Z,66.79
2022-09-16T16:14:16.978Z,67.50
2022-09-16T16:17:20.773Z,68.03
2022-09-16T16:20:21.623Z,68.67
2022-09-16T16:23:27.114Z,69.04
2022-09-16T16:26:33.165Z,69.47
2022-09-16T16:29:38.366Z,69.78
2022-09-16T16:32:45.208Z,69.88
2022-09-16T16:35:49.993Z,69.86
2022-09-16T16:38:55.247Z,69.84
2022-09-16T16:42:01.909Z,70.37
2022-09-16T16:45:07.291Z,70.23
2022-09-16T16:48:13.068Z,70.32
2022-09-16T16:51:22.674Z,70.52
2022-09-16T16:54:27.552Z,69.89
2022-09-16T16:57:33.336Z,69.89
2022-09-16T17:00:38.405Z,70.82
2022-09-16T17:03:45.028Z,70.55
2022-09-16T17:07:14.422Z,70.19
2022-09-16T17:09:59.980Z,69.72
2022-09-16T17:13:05.156Z,69.41
2022-09-16T17:16:10.660Z,69.80
2022-09-16T17:19:16.733Z,69.91
2022-09-16T17:22:23.354Z,69.04
2022-09-16T17:25:30.057Z,68.46
2022-09-16T17:28:35.344Z,67.63
2022-09-16T17:31:42.892Z,67.23
2022-09-16T17:34:49.056Z,66.68
2022-09-16T17:37:54.534Z,66.75
2022-09-16T17:40:59.835Z,66.73
2022-09-16T17:44:06.435Z,66.73
2022-09-16T17:47:12.729Z,66.96
2022-09-16T17:50:22.265Z,66.92
2022-09-16T17:53:25.635Z,67.12
2022-09-16T17:56:31.505Z,67.75
2022-09-16T17:59:37.413Z,67.89
2022-09-16T18:02:42.606Z,68.35
2022-09-16T18:05:49.904Z,68.29
2022-09-16T18:08:57.392Z,69.47
2022-09-16T18:12:05.214Z,69.88
2022-09-16T18:15:11.260Z,69.52
2022-09-16T18:18:17.962Z,70.96
2022-09-16T18:21:26.753Z,70.90
2022-09-16T18:24:32.375Z,70.68
2022-09-16T18:27:40.706Z,70.39
2022-09-16T18:30:45.247Z,70.26
2022-09-16T18:33:44.652Z,70.95
2022-09-16T18:36:51.181Z,71.14
2022-09-16T18:39:56.140Z,71.46
2022-09-16T18:43:02.209Z,71.36
2022-09-16T18:46:07.840Z,71.27
2022-09-16T18:49:14.303Z,71.79
2022-09-16T18:52:20.376Z,71.62
2022-09-16T18:55:25.732Z,72.14
2022-09-16T18:58:31.908Z,71.99
2022-09-16T19:01:47.197Z,71.81
2022-09-16T19:04:55.382Z,72.05
2022-09-16T19:08:01.074Z,72.07
2022-09-16T19:11:06.108Z,72.89
2022-09-16T19:14:12.372Z,72.46
2022-09-16T19:17:17.326Z,72.47
2022-09-16T19:20:22.253Z,71.92
2022-09-16T19:23:27.576Z,72.07
2022-09-16T19:26:33.352Z,71.94
2022-09-16T19:29:39.904Z,72.76
2022-09-16T19:32:46.321Z,72.41
2022-09-16T19:35:51.377Z,72.21
2022-09-16T19:38:56.887Z,73.04
2022-09-16T19:42:02.342Z,72.24
2022-09-16T19:45:07.967Z,72.14
2022-09-16T19:48:13.731Z,71.64
2022-09-16T19:51:22.017Z,71.60
2022-09-16T19:54:26.744Z,71.50
2022-09-16T19:57:32.564Z,71.72
2022-09-16T20:00:55.516Z,71.93
2022-09-16T20:03:47.990Z,72.30
2022-09-16T20:06:55.435Z,72.73
2022-09-16T20:10:02.717Z,72.56
2022-09-16T20:13:10.009Z,73.10
2022-09-16T20:16:17.349Z,72.80
2022-09-16T20:19:26.768Z,72.51
2022-09-16T20:22:32.424Z,72.06
2022-09-16T20:25:38.125Z,71.87
2022-09-16T20:28:51.325Z,72.34
2022-09-16T20:31:59.336Z,71.97
2022-09-16T20:35:04.988Z,71.49
2022-09-16T20:38:11.587Z,71.69
2022-09-16T20:41:26.599Z,72.11
2022-09-16T20:44:32.471Z,71.51
2022-09-16T20:47:38.823Z,71.13
2022-09-16T20:50:45.585Z,71.45
2022-09-16T20:53:51.020Z,72.22
2022-09-16T20:56:59.834Z,72.95
2022-09-16T21:00:04.375Z,72.17
2022-09-16T21:03:09.130Z,74.04
2022-09-16T21:06:23.166Z,73.89
2022-09-16T21:09:29.804Z,72.95
2022-09-16T21:12:36.762Z,73.96
2022-09-16T21:15:43.285Z,74.68
2022-09-16T21:18:49.667Z,74.74
2022-09-16T21:21:58.295Z,73.88
2022-09-16T21:25:03.573Z,73.72
2022-09-16T21:28:10.590Z,72.92
2022-09-16T21:31:17.539Z,73.54
2022-09-16T21:34:31.904Z,73.65
2022-09-16T21:37:38.888Z,73.64
2022-09-16T21:40:44.584Z,72.79
2022-09-16T21:43:58.218Z,72.71
2022-09-16T21:47:03.720Z,73.71
2022-09-16T21:50:11.258Z,73.90
2022-09-16T21:53:16.318Z,72.96
2022-09-16T21:56:24.027Z,73.37
2022-09-16T21:59:30.915Z,73.37
2022-09-16T22:02:36.546Z,73.01
2022-09-16T22:05:41.439Z,73.27
2022-09-16T22:08:49.147Z,73.70
2022-09-16T22:11:55.851Z,73.99
2022-09-16T22:15:02.073Z,74.30
2022-09-16T22:18:09.162Z,73.65
2022-09-16T22:21:19.296Z,74.24
2022-09-16T22:24:28.042Z,73.16
2022-09-16T22:27:34.584Z,73.65
2022-09-16T22:30:40.645Z,73.63
2022-09-16T22:33:45.938Z,73.79
2022-09-16T22:36:52.529Z,75.29
2022-09-16T22:39:59.454Z,74.74
2022-09-16T22:43:05.972Z,74.38
2022-09-16T22:46:18.838Z,74.34
2022-09-16T22:49:17.662Z,74.12
2022-09-16T22:52:24.209Z,74.13
2022-09-16T22:55:30.863Z,74.45
2022-09-16T22:58:36.757Z,74.18
2022-09-16T23:01:45.605Z,74.49
2022-09-16T23:04:51.251Z,74.27
2022-09-16T23:07:57.083Z,74.36
2022-09-16T23:11:03.423Z,74.55
2022-09-16T23:14:09.218Z,74.53
2022-09-16T23:17:15.396Z,74.92
2022-09-16T23:20:15.312Z,74.57
2022-09-16T23:23:21.804Z,74.61
2022-09-16T23:26:32.515Z,74.14
2022-09-16T23:29:39.342Z,73.67
2022-09-16T23:32:45.011Z,73.72
2022-09-16T23:35:51.053Z,74.50
2022-09-16T23:38:55.679Z,74.80
2022-09-16T23:42:02.115Z,74.75
2022-09-16T23:45:06.859Z,73.69
2022-09-16T23:48:12.748Z,73.58
2022-09-16T23:51:18.434Z,73.88
2022-09-16T23:54:24.407Z,74.56
2022-09-16T23:57:24.063Z,74.69
